sensor_id;sensor_type;location;lat;lon;timestamp;temperature;humidity
16404;DHT22;8311;50.158;8.642;2022-10-31T00:01:57;20.80;60.30
16404;DHT22;8311;50.158;8.642;2022-10-31T00:04:52;20.80;60.30
16404;DHT22;8311;50.158;8.642;2022-10-31T00:07:45;20.80;60.30
16404;DHT22;8311;50.158;8.642;2022-10-31T00:10:38;20.80;60.30
16404;DHT22;8311;50.158;8.642;2022-10-31T00:13:31;20.80;60.30
16404;DHT22;8311;50.158;8.642;2022-10-31T00:16:25;20.80;60.30
16404;DHT22;8311;50.158;8.642;2022-10-31T00:19:18;20.80;60.30
16404;DHT22;8311;50.158;8.642;2022-10-31T00:22:12;20.80;60.20
16404;DHT22;8311;50.158;8.642;2022-10-31T00:25:05;20.80;60.30
16404;DHT22;8311;50.158;8.642;2022-10-31T00:27:58;20.80;60.30
16404;DHT22;8311;50.158;8.642;2022-10-31T00:30:52;20.80;60.20
16404;DHT22;8311;50.158;8.642;2022-10-31T00:33:45;20.80;60.20
16404;DHT22;8311;50.158;8.642;2022-10-31T00:36:37;20.80;60.20
16404;DHT22;8311;50.158;8.642;2022-10-31T00:39:32;20.80;60.10
16404;DHT22;8311;50.158;8.642;2022-10-31T00:42:25;20.80;60.20
16404;DHT22;8311;50.158;8.642;2022-10-31T00:45:18;20.80;60.10
16404;DHT22;8311;50.158;8.642;2022-10-31T00:48:11;20.80;60.10
16404;DHT22;8311;50.158;8.642;2022-10-31T00:51:04;20.80;60.10
16404;DHT22;8311;50.158;8.642;2022-10-31T00:53:58;20.80;60.10
16404;DHT22;8311;50.158;8.642;2022-10-31T00:56:52;20.80;60.00
16404;DHT22;8311;50.158;8.642;2022-10-31T00:59:46;20.80;60.80
16404;DHT22;8311;50.158;8.642;2022-10-31T01:02:39;20.80;60.20
16404;DHT22;8311;50.158;8.642;2022-10-31T01:05:33;20.80;60.00
16404;DHT22;8311;50.158;8.642;2022-10-31T01:08:26;20.80;60.00
16404;DHT22;8311;50.158;8.642;2022-10-31T01:11:21;20.80;60.00
16404;DHT22;8311;50.158;8.642;2022-10-31T01:14:16;20.80;60.10
16404;DHT22;8311;50.158;8.642;2022-10-31T01:17:09;20.80;60.10
16404;DHT22;8311;50.158;8.642;2022-10-31T01:20:03;20.80;60.10
16404;DHT22;8311;50.158;8.642;2022-10-31T01:22:57;20.80;60.10
16404;DHT22;8311;50.158;8.642;2022-10-31T01:25:50;20.80;60.10
16404;DHT22;8311;50.158;8.642;2022-10-31T01:28:54;20.80;60.10
16404;DHT22;8311;50.158;8.642;2022-10-31T01:31:49;20.80;60.10
16404;DHT22;8311;50.158;8.642;2022-10-31T01:34:42;20.80;60.00
16404;DHT22;8311;50.158;8.642;2022-10-31T01:37:35;20.80;60.00
16404;DHT22;8311;50.158;8.642;2022-10-31T01:40:29;20.80;60.00
16404;DHT22;8311;50.158;8.642;2022-10-31T01:43:22;20.80;60.00
16404;DHT22;8311;50.158;8.642;2022-10-31T01:46:18;20.80;60.00
16404;DHT22;8311;50.158;8.642;2022-10-31T01:49:14;20.80;60.00
16404;DHT22;8311;50.158;8.642;2022-10-31T01:52:12;20.80;60.00
16404;DHT22;8311;50.158;8.642;2022-10-31T01:55:08;20.80;60.00
16404;DHT22;8311;50.158;8.642;2022-10-31T01:58:06;20.80;60.00
16404;DHT22;8311;50.158;8.642;2022-10-31T02:01:01;20.80;59.90
16404;DHT22;8311;50.158;8.642;2022-10-31T02:03:59;20.80;59.90
16404;DHT22;8311;50.158;8.642;2022-10-31T02:06:56;20.80;59.90
16404;DHT22;8311;50.158;8.642;2022-10-31T02:09:51;20.80;59.80
16404;DHT22;8311;50.158;8.642;2022-10-31T02:12:46;20.80;59.80
16404;DHT22;8311;50.158;8.642;2022-10-31T02:15:40;20.80;59.80
16404;DHT22;8311;50.158;8.642;2022-10-31T02:18:35;20.80;59.80
16404;DHT22;8311;50.158;8.642;2022-10-31T02:21:32;20.80;59.80
16404;DHT22;8311;50.158;8.642;2022-10-31T02:24:43;20.80;59.80
16404;DHT22;8311;50.158;8.642;2022-10-31T02:27:56;20.80;59.80
16404;DHT22;8311;50.158;8.642;2022-10-31T02:31:01;20.80;59.80
16404;DHT22;8311;50.158;8.642;2022-10-31T02:34:02;20.80;59.80
16404;DHT22;8311;50.158;8.642;2022-10-31T02:37:03;20.80;59.80
16404;DHT22;8311;50.158;8.642;2022-10-31T02:40:09;20.80;59.70
16404;DHT22;8311;50.158;8.642;2022-10-31T02:43:08;20.80;59.70
16404;DHT22;8311;50.158;8.642;2022-10-31T02:46:16;20.80;59.70
16404;DHT22;8311;50.158;8.642;2022-10-31T02:49:18;20.70;59.60
16404;DHT22;8311;50.158;8.642;2022-10-31T02:52:18;20.80;59.70
16404;DHT22;8311;50.158;8.642;2022-10-31T02:58:24;20.80;59.60
16404;DHT22;8311;50.158;8.642;2022-10-31T03:01:53;20.80;59.60
16404;DHT22;8311;50.158;8.642;2022-10-31T03:05:10;20.70;59.60
16404;DHT22;8311;50.158;8.642;2022-10-31T03:08:10;20.80;59.60
16404;DHT22;8311;50.158;8.642;2022-10-31T03:11:07;20.80;59.60
16404;DHT22;8311;50.158;8.642;2022-10-31T03:14:09;20.70;59.50
16404;DHT22;8311;50.158;8.642;2022-10-31T03:17:05;20.80;59.60
16404;DHT22;8311;50.158;8.642;2022-10-31T03:20:01;20.70;59.50
16404;DHT22;8311;50.158;8.642;2022-10-31T03:22:56;20.80;59.60
16404;DHT22;8311;50.158;8.642;2022-10-31T03:25:50;20.80;59.60
16404;DHT22;8311;50.158;8.642;2022-10-31T03:28:49;20.70;59.60
16404;DHT22;8311;50.158;8.642;2022-10-31T03:31:47;20.70;59.50
16404;DHT22;8311;50.158;8.642;2022-10-31T03:34:44;20.70;59.50
16404;DHT22;8311;50.158;8.642;2022-10-31T03:37:39;20.80;59.60
16404;DHT22;8311;50.158;8.642;2022-10-31T03:40:35;20.80;59.60
16404;DHT22;8311;50.158;8.642;2022-10-31T03:43:33;20.80;59.60
16404;DHT22;8311;50.158;8.642;2022-10-31T03:46:29;20.80;59.60
16404;DHT22;8311;50.158;8.642;2022-10-31T03:49:22;20.70;59.60
16404;DHT22;8311;50.158;8.642;2022-10-31T03:52:23;20.70;59.50
16404;DHT22;8311;50.158;8.642;2022-10-31T03:55:19;20.70;59.50
16404;DHT22;8311;50.158;8.642;2022-10-31T03:58:18;20.70;59.50
16404;DHT22;8311;50.158;8.642;2022-10-31T04:01:16;20.70;59.50
16404;DHT22;8311;50.158;8.642;2022-10-31T04:04:10;20.70;59.50
16404;DHT22;8311;50.158;8.642;2022-10-31T04:07:05;20.70;59.50
16404;DHT22;8311;50.158;8.642;2022-10-31T04:10:03;20.70;59.50
16404;DHT22;8311;50.158;8.642;2022-10-31T04:13:02;20.70;59.50
16404;DHT22;8311;50.158;8.642;2022-10-31T04:15:56;20.70;59.40
16404;DHT22;8311;50.158;8.642;2022-10-31T04:18:51;20.70;59.40
16404;DHT22;8311;50.158;8.642;2022-10-31T04:21:44;20.70;59.40
16404;DHT22;8311;50.158;8.642;2022-10-31T04:24:38;20.70;59.40
16404;DHT22;8311;50.158;8.642;2022-10-31T04:27:33;20.70;59.40
16404;DHT22;8311;50.158;8.642;2022-10-31T04:30:27;20.70;59.40
16404;DHT22;8311;50.158;8.642;2022-10-31T04:33:20;20.70;59.40
16404;DHT22;8311;50.158;8.642;2022-10-31T04:36:13;20.70;59.40
16404;DHT22;8311;50.158;8.642;2022-10-31T04:39:06;20.70;59.30
16404;DHT22;8311;50.158;8.642;2022-10-31T04:41:59;20.70;59.30
16404;DHT22;8311;50.158;8.642;2022-10-31T04:44:53;20.70;59.30
16404;DHT22;8311;50.158;8.642;2022-10-31T04:47:46;20.70;59.30
16404;DHT22;8311;50.158;8.642;2022-10-31T04:50:39;20.70;59.30
16404;DHT22;8311;50.158;8.642;2022-10-31T04:53:33;20.70;59.30
16404;DHT22;8311;50.158;8.642;2022-10-31T04:56:26;20.70;59.30
16404;DHT22;8311;50.158;8.642;2022-10-31T04:59:19;20.70;59.20
16404;DHT22;8311;50.158;8.642;2022-10-31T05:02:13;20.70;59.20
16404;DHT22;8311;50.158;8.642;2022-10-31T05:05:07;20.70;59.20
16404;DHT22;8311;50.158;8.642;2022-10-31T05:08:00;20.70;59.20
16404;DHT22;8311;50.158;8.642;2022-10-31T05:10:53;20.70;59.20
16404;DHT22;8311;50.158;8.642;2022-10-31T05:13:48;20.70;59.20
16404;DHT22;8311;50.158;8.642;2022-10-31T05:16:41;20.70;59.20
16404;DHT22;8311;50.158;8.642;2022-10-31T05:19:35;20.70;59.20
16404;DHT22;8311;50.158;8.642;2022-10-31T05:22:28;20.60;59.10
16404;DHT22;8311;50.158;8.642;2022-10-31T05:25:22;20.60;59.10
16404;DHT22;8311;50.158;8.642;2022-10-31T05:28:16;20.70;59.10
16404;DHT22;8311;50.158;8.642;2022-10-31T05:31:09;20.60;59.10
16404;DHT22;8311;50.158;8.642;2022-10-31T05:34:02;20.70;59.10
16404;DHT22;8311;50.158;8.642;2022-10-31T05:36:56;20.70;59.10
16404;DHT22;8311;50.158;8.642;2022-10-31T05:39:49;20.60;59.00
16404;DHT22;8311;50.158;8.642;2022-10-31T05:42:42;20.60;59.00
16404;DHT22;8311;50.158;8.642;2022-10-31T05:45:36;20.60;59.00
16404;DHT22;8311;50.158;8.642;2022-10-31T05:48:29;20.60;59.00
16404;DHT22;8311;50.158;8.642;2022-10-31T05:51:22;20.70;59.10
16404;DHT22;8311;50.158;8.642;2022-10-31T05:54:16;20.70;59.10
16404;DHT22;8311;50.158;8.642;2022-10-31T05:57:10;20.70;59.10
16404;DHT22;8311;50.158;8.642;2022-10-31T06:00:05;20.70;59.10
16404;DHT22;8311;50.158;8.642;2022-10-31T06:02:59;20.70;59.10
16404;DHT22;8311;50.158;8.642;2022-10-31T06:05:53;20.70;59.10
16404;DHT22;8311;50.158;8.642;2022-10-31T06:08:46;20.60;59.00
16404;DHT22;8311;50.158;8.642;2022-10-31T06:11:40;20.70;59.10
16404;DHT22;8311;50.158;8.642;2022-10-31T06:14:33;20.70;59.00
16404;DHT22;8311;50.158;8.642;2022-10-31T06:17:26;20.60;59.00
16404;DHT22;8311;50.158;8.642;2022-10-31T06:20:19;20.70;59.10
16404;DHT22;8311;50.158;8.642;2022-10-31T06:23:12;20.60;59.00
16404;DHT22;8311;50.158;8.642;2022-10-31T06:26:05;20.70;59.00
16404;DHT22;8311;50.158;8.642;2022-10-31T06:28:59;20.70;59.00
16404;DHT22;8311;50.158;8.642;2022-10-31T06:31:55;20.70;59.00
16404;DHT22;8311;50.158;8.642;2022-10-31T06:34:48;20.70;59.00
16404;DHT22;8311;50.158;8.642;2022-10-31T06:37:41;20.70;59.10
16404;DHT22;8311;50.158;8.642;2022-10-31T06:40:39;20.70;59.00
16404;DHT22;8311;50.158;8.642;2022-10-31T06:43:32;20.70;59.00
16404;DHT22;8311;50.158;8.642;2022-10-31T06:46:27;20.70;59.00
16404;DHT22;8311;50.158;8.642;2022-10-31T06:49:20;20.70;59.00
16404;DHT22;8311;50.158;8.642;2022-10-31T06:52:13;20.60;58.90
16404;DHT22;8311;50.158;8.642;2022-10-31T06:55:07;20.70;59.00
16404;DHT22;8311;50.158;8.642;2022-10-31T06:58:00;20.60;58.90
16404;DHT22;8311;50.158;8.642;2022-10-31T07:00:54;20.60;58.90
16404;DHT22;8311;50.158;8.642;2022-10-31T07:03:48;20.60;58.90
16404;DHT22;8311;50.158;8.642;2022-10-31T07:06:41;20.70;59.00
16404;DHT22;8311;50.158;8.642;2022-10-31T07:09:40;20.60;58.80
16404;DHT22;8311;50.158;8.642;2022-10-31T07:12:33;20.70;58.90
16404;DHT22;8311;50.158;8.642;2022-10-31T07:15:27;20.60;58.80
16404;DHT22;8311;50.158;8.642;2022-10-31T07:18:22;20.60;58.80
16404;DHT22;8311;50.158;8.642;2022-10-31T07:21:17;20.60;58.80
16404;DHT22;8311;50.158;8.642;2022-10-31T07:24:10;20.60;59.30
16404;DHT22;8311;50.158;8.642;2022-10-31T07:27:03;20.60;58.70
16404;DHT22;8311;50.158;8.642;2022-10-31T07:29:56;20.60;58.70
16404;DHT22;8311;50.158;8.642;2022-10-31T07:32:50;20.60;58.70
16404;DHT22;8311;50.158;8.642;2022-10-31T07:35:43;20.60;58.70
16404;DHT22;8311;50.158;8.642;2022-10-31T07:38:37;20.60;58.60
16404;DHT22;8311;50.158;8.642;2022-10-31T07:41:30;20.60;59.20
16404;DHT22;8311;50.158;8.642;2022-10-31T07:44:23;20.60;58.60
16404;DHT22;8311;50.158;8.642;2022-10-31T07:47:16;20.60;58.50
16404;DHT22;8311;50.158;8.642;2022-10-31T07:50:11;20.60;58.50
16404;DHT22;8311;50.158;8.642;2022-10-31T07:53:06;20.60;58.50
16404;DHT22;8311;50.158;8.642;2022-10-31T07:56:00;20.60;58.50
16404;DHT22;8311;50.158;8.642;2022-10-31T07:58:53;20.60;58.40
16404;DHT22;8311;50.158;8.642;2022-10-31T08:01:46;20.60;58.60
16404;DHT22;8311;50.158;8.642;2022-10-31T08:04:39;20.60;58.70
16404;DHT22;8311;50.158;8.642;2022-10-31T08:07:36;20.70;58.70
16404;DHT22;8311;50.158;8.642;2022-10-31T08:10:30;20.70;58.80
16404;DHT22;8311;50.158;8.642;2022-10-31T08:13:24;20.60;58.80
16404;DHT22;8311;50.158;8.642;2022-10-31T08:16:18;20.60;58.90
16404;DHT22;8311;50.158;8.642;2022-10-31T08:19:11;20.70;58.90
16404;DHT22;8311;50.158;8.642;2022-10-31T08:22:04;20.70;59.50
16404;DHT22;8311;50.158;8.642;2022-10-31T08:24:57;20.70;59.00
16404;DHT22;8311;50.158;8.642;2022-10-31T08:27:51;20.70;58.90
16404;DHT22;8311;50.158;8.642;2022-10-31T08:30:47;20.70;59.00
16404;DHT22;8311;50.158;8.642;2022-10-31T08:33:40;20.70;58.80
16404;DHT22;8311;50.158;8.642;2022-10-31T08:36:33;20.80;58.80
16404;DHT22;8311;50.158;8.642;2022-10-31T08:39:26;20.70;58.60
16404;DHT22;8311;50.158;8.642;2022-10-31T08:42:19;20.80;58.30
16404;DHT22;8311;50.158;8.642;2022-10-31T08:45:12;20.80;58.40
16404;DHT22;8311;50.158;8.642;2022-10-31T08:48:09;20.80;58.50
16404;DHT22;8311;50.158;8.642;2022-10-31T08:51:03;20.70;58.60
16404;DHT22;8311;50.158;8.642;2022-10-31T08:53:57;20.70;58.50
16404;DHT22;8311;50.158;8.642;2022-10-31T08:56:53;20.70;58.40
16404;DHT22;8311;50.158;8.642;2022-10-31T08:59:47;20.70;58.30
16404;DHT22;8311;50.158;8.642;2022-10-31T09:02:40;20.80;58.50
16404;DHT22;8311;50.158;8.642;2022-10-31T09:05:35;20.70;58.50
16404;DHT22;8311;50.158;8.642;2022-10-31T09:08:30;20.70;58.60
16404;DHT22;8311;50.158;8.642;2022-10-31T09:11:23;20.70;58.50
16404;DHT22;8311;50.158;8.642;2022-10-31T09:14:16;20.80;58.20
16404;DHT22;8311;50.158;8.642;2022-10-31T09:17:09;20.80;58.20
16404;DHT22;8311;50.158;8.642;2022-10-31T09:20:02;20.80;58.30
16404;DHT22;8311;50.158;8.642;2022-10-31T09:22:58;20.80;58.30
16404;DHT22;8311;50.158;8.642;2022-10-31T09:25:52;20.90;58.60
16404;DHT22;8311;50.158;8.642;2022-10-31T09:28:46;20.90;58.60
16404;DHT22;8311;50.158;8.642;2022-10-31T09:31:39;21.00;58.60
16404;DHT22;8311;50.158;8.642;2022-10-31T09:34:36;21.00;58.50
16404;DHT22;8311;50.158;8.642;2022-10-31T09:37:29;21.10;58.70
16404;DHT22;8311;50.158;8.642;2022-10-31T09:40:27;21.10;58.40
16404;DHT22;8311;50.158;8.642;2022-10-31T09:43:27;21.20;58.40
16404;DHT22;8311;50.158;8.642;2022-10-31T09:46:27;21.30;58.90
16404;DHT22;8311;50.158;8.642;2022-10-31T09:49:38;21.40;58.70
16404;DHT22;8311;50.158;8.642;2022-10-31T09:52:36;21.40;58.60
16404;DHT22;8311;50.158;8.642;2022-10-31T09:55:37;21.40;58.60
16404;DHT22;8311;50.158;8.642;2022-10-31T09:58:33;21.40;58.70
16404;DHT22;8311;50.158;8.642;2022-10-31T10:01:35;21.40;58.70
16404;DHT22;8311;50.158;8.642;2022-10-31T10:04:37;21.40;58.60
16404;DHT22;8311;50.158;8.642;2022-10-31T10:07:40;21.40;58.50
16404;DHT22;8311;50.158;8.642;2022-10-31T10:10:45;21.30;58.50
16404;DHT22;8311;50.158;8.642;2022-10-31T10:13:53;21.40;58.60
16404;DHT22;8311;50.158;8.642;2022-10-31T10:17:03;21.30;58.60
16404;DHT22;8311;50.158;8.642;2022-10-31T10:20:23;21.40;58.80
16404;DHT22;8311;50.158;8.642;2022-10-31T10:23:31;21.40;58.80
16404;DHT22;8311;50.158;8.642;2022-10-31T10:26:37;21.40;58.70
16404;DHT22;8311;50.158;8.642;2022-10-31T10:29:34;21.40;58.70
16404;DHT22;8311;50.158;8.642;2022-10-31T10:32:30;21.40;58.70
16404;DHT22;8311;50.158;8.642;2022-10-31T10:35:29;21.40;58.70
16404;DHT22;8311;50.158;8.642;2022-10-31T10:38:28;21.40;58.80
16404;DHT22;8311;50.158;8.642;2022-10-31T10:41:23;21.50;58.90
16404;DHT22;8311;50.158;8.642;2022-10-31T10:44:26;21.50;59.00
16404;DHT22;8311;50.158;8.642;2022-10-31T10:47:40;21.40;58.60
16404;DHT22;8311;50.158;8.642;2022-10-31T10:50:36;21.40;58.40
16404;DHT22;8311;50.158;8.642;2022-10-31T10:53:43;21.40;58.20
16404;DHT22;8311;50.158;8.642;2022-10-31T10:57:04;21.40;58.20
16404;DHT22;8311;50.158;8.642;2022-10-31T11:03:11;21.30;58.10
16404;DHT22;8311;50.158;8.642;2022-10-31T11:06:16;21.30;58.10
16404;DHT22;8311;50.158;8.642;2022-10-31T11:09:16;21.30;58.10
16404;DHT22;8311;50.158;8.642;2022-10-31T11:12:11;21.30;58.20
16404;DHT22;8311;50.158;8.642;2022-10-31T11:15:20;21.30;58.20
16404;DHT22;8311;50.158;8.642;2022-10-31T11:18:20;21.30;58.10
16404;DHT22;8311;50.158;8.642;2022-10-31T11:21:20;21.20;58.20
16404;DHT22;8311;50.158;8.642;2022-10-31T11:24:16;21.30;58.30
16404;DHT22;8311;50.158;8.642;2022-10-31T11:27:14;21.20;58.20
16404;DHT22;8311;50.158;8.642;2022-10-31T11:30:12;21.30;58.30
16404;DHT22;8311;50.158;8.642;2022-10-31T11:33:16;21.20;58.30
16404;DHT22;8311;50.158;8.642;2022-10-31T11:36:16;21.20;58.40
16404;DHT22;8311;50.158;8.642;2022-10-31T11:39:17;21.20;58.40
16404;DHT22;8311;50.158;8.642;2022-10-31T11:42:12;21.20;58.40
16404;DHT22;8311;50.158;8.642;2022-10-31T11:45:13;21.20;58.50
16404;DHT22;8311;50.158;8.642;2022-10-31T11:48:16;21.20;58.60
16404;DHT22;8311;50.158;8.642;2022-10-31T11:51:09;21.20;58.60
16404;DHT22;8311;50.158;8.642;2022-10-31T11:54:04;21.20;58.70
16404;DHT22;8311;50.158;8.642;2022-10-31T11:56:57;21.20;58.70
16404;DHT22;8311;50.158;8.642;2022-10-31T11:59:51;21.20;58.70
16404;DHT22;8311;50.158;8.642;2022-10-31T12:02:45;21.20;58.70
16404;DHT22;8311;50.158;8.642;2022-10-31T12:05:41;21.20;58.70
16404;DHT22;8311;50.158;8.642;2022-10-31T12:08:38;21.20;58.80
16404;DHT22;8311;50.158;8.642;2022-10-31T12:11:42;21.20;58.80
16404;DHT22;8311;50.158;8.642;2022-10-31T12:14:42;21.20;58.80
16404;DHT22;8311;50.158;8.642;2022-10-31T12:17:42;21.20;58.80
16404;DHT22;8311;50.158;8.642;2022-10-31T12:20:44;21.20;58.80
16404;DHT22;8311;50.158;8.642;2022-10-31T12:23:47;21.20;58.80
16404;DHT22;8311;50.158;8.642;2022-10-31T12:26:53;21.20;58.90
16404;DHT22;8311;50.158;8.642;2022-10-31T12:30:08;21.10;58.80
16404;DHT22;8311;50.158;8.642;2022-10-31T12:33:15;21.20;59.00
16404;DHT22;8311;50.158;8.642;2022-10-31T12:36:21;21.10;58.90
16404;DHT22;8311;50.158;8.642;2022-10-31T12:39:25;21.10;58.90
16404;DHT22;8311;50.158;8.642;2022-10-31T12:42:30;21.20;59.00
16404;DHT22;8311;50.158;8.642;2022-10-31T12:45:47;21.10;58.90
16404;DHT22;8311;50.158;8.642;2022-10-31T12:49:06;21.10;58.90
16404;DHT22;8311;50.158;8.642;2022-10-31T12:52:13;21.10;59.00
16404;DHT22;8311;50.158;8.642;2022-10-31T12:55:25;21.10;59.00
16404;DHT22;8311;50.158;8.642;2022-10-31T12:58:28;21.10;59.00
16404;DHT22;8311;50.158;8.642;2022-10-31T13:01:26;21.10;59.10
16404;DHT22;8311;50.158;8.642;2022-10-31T13:04:28;21.10;59.10
16404;DHT22;8311;50.158;8.642;2022-10-31T13:07:29;21.10;59.00
16404;DHT22;8311;50.158;8.642;2022-10-31T13:10:26;21.10;59.00
16404;DHT22;8311;50.158;8.642;2022-10-31T13:13:27;21.10;59.10
16404;DHT22;8311;50.158;8.642;2022-10-31T13:16:25;21.10;59.10
16404;DHT22;8311;50.158;8.642;2022-10-31T13:19:25;21.10;59.10
16404;DHT22;8311;50.158;8.642;2022-10-31T13:22:21;21.10;59.00
16404;DHT22;8311;50.158;8.642;2022-10-31T13:25:19;21.10;59.10
16404;DHT22;8311;50.158;8.642;2022-10-31T13:28:23;21.10;59.10
16404;DHT22;8311;50.158;8.642;2022-10-31T13:31:19;21.10;59.10
16404;DHT22;8311;50.158;8.642;2022-10-31T13:34:21;21.10;59.20
16404;DHT22;8311;50.158;8.642;2022-10-31T13:37:20;21.10;59.20
16404;DHT22;8311;50.158;8.642;2022-10-31T13:40:29;21.10;59.20
16404;DHT22;8311;50.158;8.642;2022-10-31T13:43:31;21.10;59.20
16404;DHT22;8311;50.158;8.642;2022-10-31T13:46:35;21.10;59.30
16404;DHT22;8311;50.158;8.642;2022-10-31T13:49:40;21.00;59.20
16404;DHT22;8311;50.158;8.642;2022-10-31T13:52:33;21.10;59.70
16404;DHT22;8311;50.158;8.642;2022-10-31T13:55:39;21.10;60.10
16404;DHT22;8311;50.158;8.642;2022-10-31T13:58:33;21.10;60.80
16404;DHT22;8311;50.158;8.642;2022-10-31T14:01:27;21.10;61.30
16404;DHT22;8311;50.158;8.642;2022-10-31T14:04:24;21.10;62.00
16404;DHT22;8311;50.158;8.642;2022-10-31T14:07:20;21.10;62.10
16404;DHT22;8311;50.158;8.642;2022-10-31T14:10:22;21.10;62.10
16404;DHT22;8311;50.158;8.642;2022-10-31T14:13:22;21.10;62.10
16404;DHT22;8311;50.158;8.642;2022-10-31T14:16:18;21.10;62.40
16404;DHT22;8311;50.158;8.642;2022-10-31T14:19:16;21.10;62.40
16404;DHT22;8311;50.158;8.642;2022-10-31T14:22:19;21.10;62.60
16404;DHT22;8311;50.158;8.642;2022-10-31T14:25:31;21.10;63.30
16404;DHT22;8311;50.158;8.642;2022-10-31T14:28:33;21.10;62.60
16404;DHT22;8311;50.158;8.642;2022-10-31T14:31:34;21.10;62.50
16404;DHT22;8311;50.158;8.642;2022-10-31T14:34:32;21.10;62.50
16404;DHT22;8311;50.158;8.642;2022-10-31T14:37:35;21.10;62.50
16404;DHT22;8311;50.158;8.642;2022-10-31T14:40:39;21.10;62.50
16404;DHT22;8311;50.158;8.642;2022-10-31T14:43:50;21.10;62.50
16404;DHT22;8311;50.158;8.642;2022-10-31T14:46:52;21.10;62.30
16404;DHT22;8311;50.158;8.642;2022-10-31T14:50:09;21.10;62.30
16404;DHT22;8311;50.158;8.642;2022-10-31T14:53:08;21.10;62.40
16404;DHT22;8311;50.158;8.642;2022-10-31T14:56:10;21.10;62.40
16404;DHT22;8311;50.158;8.642;2022-10-31T14:59:11;21.10;62.30
16404;DHT22;8311;50.158;8.642;2022-10-31T15:02:12;21.10;62.30
16404;DHT22;8311;50.158;8.642;2022-10-31T15:05:08;21.10;62.30
16404;DHT22;8311;50.158;8.642;2022-10-31T15:08:01;21.10;62.40
16404;DHT22;8311;50.158;8.642;2022-10-31T15:10:54;21.10;62.40
16404;DHT22;8311;50.158;8.642;2022-10-31T15:13:49;21.10;62.40
16404;DHT22;8311;50.158;8.642;2022-10-31T15:16:44;21.10;62.40
16404;DHT22;8311;50.158;8.642;2022-10-31T15:19:37;21.10;62.40
16404;DHT22;8311;50.158;8.642;2022-10-31T15:22:31;21.10;62.50
16404;DHT22;8311;50.158;8.642;2022-10-31T15:25:28;21.20;62.50
16404;DHT22;8311;50.158;8.642;2022-10-31T15:28:24;21.10;62.40
16404;DHT22;8311;50.158;8.642;2022-10-31T15:31:18;21.10;62.50
16404;DHT22;8311;50.158;8.642;2022-10-31T15:34:16;21.10;62.50
16404;DHT22;8311;50.158;8.642;2022-10-31T15:37:12;21.10;62.50
16404;DHT22;8311;50.158;8.642;2022-10-31T15:40:12;21.10;62.40
16404;DHT22;8311;50.158;8.642;2022-10-31T15:43:07;21.10;62.30
16404;DHT22;8311;50.158;8.642;2022-10-31T15:46:00;21.10;62.20
16404;DHT22;8311;50.158;8.642;2022-10-31T15:48:55;21.10;62.30
16404;DHT22;8311;50.158;8.642;2022-10-31T15:51:50;21.10;62.30
16404;DHT22;8311;50.158;8.642;2022-10-31T15:54:48;21.10;62.30
16404;DHT22;8311;50.158;8.642;2022-10-31T15:57:42;21.10;62.30
16404;DHT22;8311;50.158;8.642;2022-10-31T16:00:37;21.10;62.40
16404;DHT22;8311;50.158;8.642;2022-10-31T16:03:32;21.10;62.40
16404;DHT22;8311;50.158;8.642;2022-10-31T16:06:26;21.10;62.50
16404;DHT22;8311;50.158;8.642;2022-10-31T16:09:23;21.10;62.50
16404;DHT22;8311;50.158;8.642;2022-10-31T16:12:17;21.10;62.50
16404;DHT22;8311;50.158;8.642;2022-10-31T16:15:14;21.10;62.50
16404;DHT22;8311;50.158;8.642;2022-10-31T16:18:11;21.10;62.60
16404;DHT22;8311;50.158;8.642;2022-10-31T16:21:05;21.10;62.60
16404;DHT22;8311;50.158;8.642;2022-10-31T16:24:01;21.10;62.70
16404;DHT22;8311;50.158;8.642;2022-10-31T16:27:03;21.10;62.90
16404;DHT22;8311;50.158;8.642;2022-10-31T16:29:59;21.10;62.90
16404;DHT22;8311;50.158;8.642;2022-10-31T16:32:57;21.10;62.90
16404;DHT22;8311;50.158;8.642;2022-10-31T16:35:52;21.10;62.90
16404;DHT22;8311;50.158;8.642;2022-10-31T16:39:01;21.10;63.00
16404;DHT22;8311;50.158;8.642;2022-10-31T16:41:56;21.10;62.90
16404;DHT22;8311;50.158;8.642;2022-10-31T16:44:50;21.10;63.00
16404;DHT22;8311;50.158;8.642;2022-10-31T16:47:43;21.10;62.90
16404;DHT22;8311;50.158;8.642;2022-10-31T16:50:37;21.10;63.10
16404;DHT22;8311;50.158;8.642;2022-10-31T16:53:30;21.10;63.00
16404;DHT22;8311;50.158;8.642;2022-10-31T16:56:26;21.10;63.00
16404;DHT22;8311;50.158;8.642;2022-10-31T16:59:21;21.10;63.00
16404;DHT22;8311;50.158;8.642;2022-10-31T17:02:16;21.10;63.00
16404;DHT22;8311;50.158;8.642;2022-10-31T17:05:12;21.10;63.10
16404;DHT22;8311;50.158;8.642;2022-10-31T17:08:06;21.10;63.10
16404;DHT22;8311;50.158;8.642;2022-10-31T17:10:59;21.10;63.10
16404;DHT22;8311;50.158;8.642;2022-10-31T17:13:53;21.10;63.00
16404;DHT22;8311;50.158;8.642;2022-10-31T17:16:48;21.10;63.30
16404;DHT22;8311;50.158;8.642;2022-10-31T17:19:43;21.10;63.30
16404;DHT22;8311;50.158;8.642;2022-10-31T17:22:36;21.10;63.50
16404;DHT22;8311;50.158;8.642;2022-10-31T17:25:34;21.10;63.60
16404;DHT22;8311;50.158;8.642;2022-10-31T17:28:28;21.10;63.60
16404;DHT22;8311;50.158;8.642;2022-10-31T17:31:22;21.10;63.60
16404;DHT22;8311;50.158;8.642;2022-10-31T17:34:15;21.10;63.60
16404;DHT22;8311;50.158;8.642;2022-10-31T17:37:11;21.10;63.70
16404;DHT22;8311;50.158;8.642;2022-10-31T17:40:04;21.10;63.70
16404;DHT22;8311;50.158;8.642;2022-10-31T17:42:59;21.10;63.90
16404;DHT22;8311;50.158;8.642;2022-10-31T17:45:53;21.10;63.90
16404;DHT22;8311;50.158;8.642;2022-10-31T17:48:47;21.10;64.00
16404;DHT22;8311;50.158;8.642;2022-10-31T17:51:41;21.10;64.20
16404;DHT22;8311;50.158;8.642;2022-10-31T17:54:35;21.10;64.00
16404;DHT22;8311;50.158;8.642;2022-10-31T17:57:32;21.10;64.10
16404;DHT22;8311;50.158;8.642;2022-10-31T18:00:26;21.10;64.00
16404;DHT22;8311;50.158;8.642;2022-10-31T18:03:19;21.10;64.00
16404;DHT22;8311;50.158;8.642;2022-10-31T18:06:13;21.10;64.10
16404;DHT22;8311;50.158;8.642;2022-10-31T18:09:08;21.10;64.10
16404;DHT22;8311;50.158;8.642;2022-10-31T18:12:02;21.10;64.20
16404;DHT22;8311;50.158;8.642;2022-10-31T18:14:56;21.10;64.20
16404;DHT22;8311;50.158;8.642;2022-10-31T18:17:49;21.10;64.50
16404;DHT22;8311;50.158;8.642;2022-10-31T18:20:42;21.10;64.60
16404;DHT22;8311;50.158;8.642;2022-10-31T18:23:36;21.10;64.40
16404;DHT22;8311;50.158;8.642;2022-10-31T18:26:29;21.10;64.40
16404;DHT22;8311;50.158;8.642;2022-10-31T18:29:23;21.10;64.40
16404;DHT22;8311;50.158;8.642;2022-10-31T18:32:17;21.10;64.30
16404;DHT22;8311;50.158;8.642;2022-10-31T18:35:10;21.10;64.40
16404;DHT22;8311;50.158;8.642;2022-10-31T18:38:04;21.10;64.40
16404;DHT22;8311;50.158;8.642;2022-10-31T18:40:58;21.10;64.60
16404;DHT22;8311;50.158;8.642;2022-10-31T18:43:51;21.10;64.40
16404;DHT22;8311;50.158;8.642;2022-10-31T18:46:48;21.10;64.50
16404;DHT22;8311;50.158;8.642;2022-10-31T18:49:41;21.10;64.70
16404;DHT22;8311;50.158;8.642;2022-10-31T18:52:34;21.10;64.50
16404;DHT22;8311;50.158;8.642;2022-10-31T18:55:28;21.10;64.50
16404;DHT22;8311;50.158;8.642;2022-10-31T18:58:22;21.10;64.50
16404;DHT22;8311;50.158;8.642;2022-10-31T19:01:16;21.10;64.60